Old Saybrook, CT

3:16 PM EDT on August 18, 2017 (GMT -0400)
Beamon Creek | | Change Station

Elev 10 ft 41.27 °N, 72.37 °W | Updated 29 seconds ago

Overcast
Overcast
76.6 °F
Feels Like 78 °F
N
2.7
Wind Variable Wind from SE

Today
High -- | Low -- °F
--% Chance of Precip.
Yesterday
High -- | Low -- °F
Precip. -- in
Pressure 29.86 in
Visibility 3.0 miles
Clouds Overcast 700 ft
Heat Index 78 °F
Dew Point 72 °F
Humidity 87%
Rainfall 0.71 in
Snow Depth Not available.
6:02 AM 7:43 PM
Waning Crescent, 12% visible
METAR KGON 181856Z 18006KT 3SM BR OVC007 23/22 A2985 RMK AO2 LTG DSNT E RAE32 SLP109 P0000 T02280217
Pressure 29.86 in
Visibility 3.0 miles
Clouds Overcast 700 ft
Heat Index 78 °F
Dew Point 72 °F
Humidity 87%
Rainfall 0.71 in
Snow Depth Not available.
6:02 AM 7:43 PM
Waning Crescent, 12% visible
METAR KGON 181856Z 18006KT 3SM BR OVC007 23/22 A2985 RMK AO2 LTG DSNT E RAE32 SLP109 P0000 T02280217

Get Severe Weather Alerts

Thanks for signing up!

Be on the lookout for a verification email in your inbox.

You'll start receiving the daily forecast at 6 AM.

×

10-Day Weather Forecast

Almanac

Astronomy

Aug. 18, 2017 Rise Set
Actual Time
Civil Twilight
Nautical Twilight
Astronomical Twilight
Moon
Length of Visible Light
Length of Day
Tomorrow will be .
, % of the Moon is Illuminated

Today's Extremes

State Highs State Lows

Community

WunderPhotos

Category 6

Welcome to Category 6. This is the collective home for Weather Underground's featured writeups by Dr. Jeff Masters (right), Bob Henson (left), Chris Burt, and other regular contributors.

Nearby

Air Quality

  Air Quality AQ Index Pollutant
Not available.

Snow Depth

Station Depth Elevation

Earthquake Activity

City Distance Mag. Time & Date
Minimum magnitude displayed is 2.5.

Coastal Water Temperatures

Place Temperature

Stations

Nearby Weather Stations

Station Location Temp. Windchill Dew Point Humidity Wind Precip. Elev Updated Type
                   

Watches & Warnings

There are currently no watches in effect.